CheckWX is a tool to help pilots better visualize weather data.  It is not intended as a substitute for an official pre-flight weather briefing.

18:51:39 UTC

KHYA METAR
Barnstable Municipal-Boardman / Polando Field Airport
Hyannis, Massachusetts, USA
Current

56 mins ago

KHYA 221756Z 03010KT 10SM CLR 06/M04 A3027 RMK AO2 SLP252 T00561044 10067 20033 50005
Observed
Feb-22 @ 17:56 UTC
Wind
  • 030° at 10 KTS
Visibility
10 SM
Flight Rules
VFR
Cloud Levels
  • Clear skies
Temperature
C / 43°F
Dewpoint
-4°C / 25°F
Humidity
49%
Altimeter
30.27" Hg
Pressure
1025.2 hPa
Previous

2 hours ago

KHYA 221656Z 36010G17KT 10SM CLR 06/M04 A3028 RMK AO2 SLP256 T00561039
Observed
Feb-22 @ 16:56 UTC
Wind
  • 360° at 10 KTS
  • Gusting to KTS
Visibility
10 SM
Flight Rules
VFR
Cloud Levels
  • Clear skies
Temperature
C / 43°F
Dewpoint
-4°C / 25°F
Humidity
49%
Altimeter
30.28" Hg
Pressure
1025.6 hPa
Previous

3 hours ago

KHYA 221556Z 35010G17KT 10SM CLR 06/M04 A3026 RMK AO2 SLP249 T00561039
Observed
Feb-22 @ 15:56 UTC
Wind
  • 350° at 10 KTS
  • Gusting to KTS
Visibility
10 SM
Flight Rules
VFR
Cloud Levels
  • Clear skies
Temperature
C / 43°F
Dewpoint
-4°C / 25°F
Humidity
49%
Altimeter
30.26" Hg
Pressure
1024.9 hPa